Aérodrome :
LOGIN :

S'inscrire | Disclaimer

   EN    FR    IT 

 










Légende :    VFR   VFR Marginal   IFR   IFR Intensif   IFR Très Intensif
Visi : 
Plafond : 
>= 8 km
>= 3000ft
5 à 8 km
1000 à 3000 ft
1500m à 5 km
500 à 1000 ft
800 à 1500m
200 à 500 ft
< 800m
< 200 ft
Symboles :   Orages  Brouillard  Fortes neiges  Fortes précipitations  Vent > 20 kt
SIGMETs :   Divers  Orages  Givrage  Turbulence  Onde Orograph.  Cendres Volcan.







- Altitude de l'aérodrome : 238 ft
- Code IATA : FAB
- Voir les cartes d'approche


EGLF - Farnborough

DERNIER METAR :
  • 211750Z 10007KT 9999 BKN037 04/00 Q1016

METARs EXPIRÉS :
  • 211720Z 10007KT 9999 BKN037 04/00 Q1016
  • 211650Z 11008KT 9999 BKN038 05/00 Q1015
  • 211620Z 11010KT 9999 BKN040 05/00 Q1015
  • 211550Z 12008KT 080V140 9999 FEW041 05/01 Q1014
  • 211520Z 10008KT 9999 FEW043 05/01 Q1014

TAF TAF EGLF
Valide du 21 à 18h jusqu'au 21 à 22h UTC


211705Z 2118/2122 10009KT 9999 SCT035
BECMG 2119/2122 7000
PROB30 2121/2122 4000 BR
ATIS : +44 09063 800 400 (*282)
Pas de NOTAMs connus pour ce terrain.



MET'MAP, la Météo Aéronautique d'un coup d'oeil ! - Copyright ORBIFLY Décembre 2007 - Disclaimer

ORBIFLY MET'MAP TEAM :

Programmation & Développement : Alexandra Zaïnal
Conception & Développement : Baudouin d'Aumeries
Co-Programmation & Développement : Marc-Olivier Méhu
Soutien technique & logistique : Manuel Goepfert

Contact : metmap@orbifly.com




SOURCES & CREDITS :

   NOAA